LDPL Airport Information

Runway Information
Runway 09 Length 9678 ft width 148 ft
Elevation 169 ft Threshold 0 ft Heading 88
Runway 27 Length 9678 ft Width 148 ft
Elevation 274 ft Threshold 0 ft Heading 268
Airport Frequencies
Type APP Name APP Frequency 118.4 MHZ
Type TWR Name TWR Frequency 120 MHZ
Airport Navaids
Type NDB Name Cres Frequency 433 KHZ
Type NDB Name Kavran Frequency 265 KHZ
Type NDB Name Pula Frequency 352 KHZ
Type VOR-DME Name Pula Frequency 111250 KHZ
Airport Weather Information & NOTAM
ADDS - METARS form results

(1909 UTC 25 June 2018)
 
METAR text: LDPL 251900Z 05010KT CAVOK 20/10 Q1017 NOSIG
Conditions at: LDPL (PULA , HR) observed 1900 UTC 25 June 2018
Temperature: 20.0°C (68°F)
Dewpoint: 10.0°C (50°F) [RH = 53%]
Pressure (altimeter): 30.03 inches Hg (1017.0 mb)
Winds: from the NE (50 degrees) at 12 MPH (10 knots; 5.2 m/s)
Visibility: 6 or more miles (10+ km)
Ceiling: ceiling and visibility are OK
Clouds: unknown
Weather: no significant weather observed at this time

METAR text: LDPL 251830Z 05009KT CAVOK 21/10 Q1017 NOSIG
Conditions at: LDPL (PULA , HR) observed 1830 UTC 25 June 2018
Temperature: 21.0°C (70°F)
Dewpoint: 10.0°C (50°F) [RH = 49%]
Pressure (altimeter): 30.03 inches Hg (1017.0 mb)
Winds: from the NE (50 degrees) at 10 MPH (9 knots; 4.7 m/s)
Visibility: 6 or more miles (10+ km)
Ceiling: ceiling and visibility are OK
Clouds: unknown
Weather: no significant weather observed at this time